createdAt,value
2019-04-25T00:02:21.215Z,20.10
2019-04-25T00:04:51.436Z,20.20
2019-04-25T00:07:21.679Z,20.12
2019-04-25T00:09:54.863Z,19.48
2019-04-25T00:12:25.500Z,21.05
2019-04-25T00:14:54.182Z,20.00
2019-04-25T00:17:24.827Z,20.32
2019-04-25T00:19:54.779Z,21.37
2019-04-25T00:22:28.196Z,20.15
2019-04-25T00:24:58.845Z,20.43
2019-04-25T00:27:29.278Z,21.00
2019-04-25T00:29:58.559Z,20.50
2019-04-25T00:32:27.375Z,20.95
2019-04-25T00:34:56.123Z,20.48
2019-04-25T00:37:26.287Z,21.30
2019-04-25T00:39:56.180Z,21.55
2019-04-25T00:42:25.972Z,19.85
2019-04-25T00:44:54.680Z,20.52
2019-04-25T00:47:23.437Z,20.15
2019-04-25T00:49:53.810Z,21.15
2019-04-25T00:52:24.099Z,21.55
2019-04-25T00:54:53.508Z,21.00
2019-04-25T00:57:22.494Z,21.50
2019-04-25T00:59:53.178Z,21.40
2019-04-25T01:02:24.636Z,19.65
2019-04-25T01:04:54.577Z,20.55
2019-04-25T01:07:26.350Z,19.82
2019-04-25T01:09:55.125Z,19.42
2019-04-25T01:12:26.719Z,19.35
2019-04-25T01:14:55.459Z,20.17
2019-04-25T01:17:24.190Z,20.55
2019-04-25T01:19:55.096Z,21.25
2019-04-25T01:22:25.356Z,21.20
2019-04-25T01:24:55.178Z,20.70
2019-04-25T01:27:25.958Z,20.50
2019-04-25T01:29:56.381Z,20.50
2019-04-25T01:32:29.433Z,21.30
2019-04-25T01:35:04.055Z,21.35
2019-04-25T01:37:43.818Z,20.85
2019-04-25T01:40:26.537Z,20.25
2019-04-25T01:43:13.768Z,19.55
2019-04-25T01:45:44.149Z,20.90
2019-04-25T01:48:13.779Z,20.62
2019-04-25T01:50:44.159Z,20.48
2019-04-25T01:53:14.466Z,19.77
2019-04-25T01:55:53.289Z,21.02
2019-04-25T01:58:13.884Z,21.87
2019-04-25T02:00:47.134Z,19.67
2019-04-25T02:03:16.305Z,21.12
2019-04-25T02:05:45.673Z,21.07
2019-04-25T02:08:14.452Z,19.62
2019-04-25T02:10:45.090Z,21.40
2019-04-25T02:13:21.391Z,20.60
2019-04-25T02:15:51.525Z,20.02
2019-04-25T02:18:21.158Z,21.05
2019-04-25T02:20:54.617Z,20.00
2019-04-25T02:23:21.935Z,21.55
2019-04-25T02:25:50.743Z,21.50
2019-04-25T02:28:19.467Z,20.88
2019-04-25T02:30:49.572Z,20.32
2019-04-25T02:33:19.608Z,20.82
2019-04-25T02:35:48.414Z,21.82
2019-04-25T02:38:17.406Z,21.50
2019-04-25T02:40:47.657Z,21.23
2019-04-25T02:43:16.392Z,20.65
2019-04-25T02:45:58.458Z,22.00
2019-04-25T02:48:44.225Z,21.23
2019-04-25T02:51:14.678Z,21.62
2019-04-25T02:53:45.038Z,21.97
2019-04-25T02:56:30.339Z,22.02
2019-04-25T02:58:44.433Z,22.48
2019-04-25T03:01:21.971Z,23.05
2019-04-25T03:03:46.341Z,22.42
2019-04-25T03:06:16.828Z,22.05
2019-04-25T03:08:47.758Z,22.42
2019-04-25T03:11:16.544Z,22.13
2019-04-25T03:13:45.335Z,21.93
2019-04-25T03:16:15.772Z,22.32
2019-04-25T03:18:49.167Z,22.48
2019-04-25T03:21:35.154Z,23.40
2019-04-25T03:24:19.995Z,21.95
2019-04-25T03:30:18.561Z,23.40
2019-04-25T03:32:51.262Z,23.87
2019-04-25T03:35:18.912Z,24.18
2019-04-25T03:37:48.029Z,22.60
2019-04-25T03:40:17.471Z,23.22
2019-04-25T03:42:46.582Z,22.70
2019-04-25T03:45:15.858Z,23.00
2019-04-25T03:47:45.698Z,22.82
2019-04-25T03:50:17.568Z,22.93
2019-04-25T03:52:46.721Z,22.58
2019-04-25T03:55:16.825Z,24.02
2019-04-25T03:57:46.290Z,24.65
2019-04-25T04:00:15.215Z,23.62
2019-04-25T04:02:47.497Z,22.85
2019-04-25T04:05:17.161Z,23.02
2019-04-25T04:07:47.848Z,22.95
2019-04-25T04:10:17.769Z,24.92
2019-04-25T04:12:47.078Z,24.57
2019-04-25T04:15:17.212Z,24.47
2019-04-25T04:17:53.832Z,23.75
2019-04-25T04:20:33.500Z,24.00
2019-04-25T04:23:03.193Z,24.43
2019-04-25T04:25:33.628Z,22.75
2019-04-25T04:28:03.796Z,23.15
2019-04-25T04:30:34.073Z,23.15
2019-04-25T04:33:03.796Z,22.30
2019-04-25T04:35:33.533Z,23.22
2019-04-25T04:38:04.169Z,23.40
2019-04-25T04:40:35.905Z,22.67
2019-04-25T04:43:04.540Z,22.67
2019-04-25T04:45:35.178Z,21.93
2019-04-25T04:48:03.977Z,23.18
2019-04-25T04:50:34.253Z,22.45
2019-04-25T04:53:03.870Z,24.50
2019-04-25T04:55:34.622Z,27.02
2019-04-25T04:58:04.863Z,26.75
2019-04-25T05:00:35.525Z,25.48
2019-04-25T05:03:06.413Z,26.02
2019-04-25T05:05:40.137Z,23.30
2019-04-25T05:08:14.977Z,22.52
2019-04-25T05:10:45.629Z,23.75
2019-04-25T05:13:15.781Z,23.47
2019-04-25T05:15:46.479Z,23.80
2019-04-25T05:18:25.586Z,23.98
2019-04-25T05:20:45.886Z,23.02
2019-04-25T05:23:16.845Z,23.92
2019-04-25T05:25:45.089Z,23.38
2019-04-25T05:28:16.181Z,22.55
2019-04-25T05:30:46.723Z,38.92
2019-04-25T05:33:18.651Z,23.12
2019-04-25T05:35:45.971Z,23.25
2019-04-25T05:38:15.435Z,23.40
2019-04-25T05:40:58.775Z,25.08
2019-04-25T05:43:28.870Z,22.67
2019-04-25T05:45:58.226Z,22.67
2019-04-25T05:48:27.064Z,23.65
2019-04-25T05:50:56.014Z,22.52
2019-04-25T05:53:26.082Z,22.00
2019-04-25T05:55:55.003Z,22.98
2019-04-25T05:58:25.702Z,22.25
2019-04-25T06:00:55.839Z,22.02
2019-04-25T06:03:26.078Z,21.30
2019-04-25T06:05:55.124Z,21.65
2019-04-25T06:08:26.728Z,20.75
2019-04-25T06:14:05.713Z,21.77
2019-04-25T06:16:38.946Z,21.37
2019-04-25T06:19:14.268Z,20.15
2019-04-25T06:21:40.485Z,19.90
2019-04-25T06:24:27.412Z,20.00
2019-04-25T06:27:00.763Z,18.27
2019-04-25T06:29:29.833Z,18.20
2019-04-25T06:32:06.613Z,17.75
2019-04-25T06:34:33.997Z,18.40
2019-04-25T06:37:04.236Z,17.75
2019-04-25T06:39:32.220Z,17.75
2019-04-25T06:42:01.616Z,17.20
2019-04-25T06:44:41.504Z,17.07
2019-04-25T06:47:17.786Z,17.37
2019-04-25T06:49:51.009Z,16.35
2019-04-25T06:52:24.572Z,16.23
2019-04-25T06:54:53.290Z,15.75
2019-04-25T06:57:22.195Z,16.73
2019-04-25T06:59:51.219Z,15.23
2019-04-25T07:02:20.717Z,15.38
2019-04-25T07:04:51.533Z,14.03
2019-04-25T07:07:20.080Z,16.80
2019-04-25T07:09:49.319Z,14.20
2019-04-25T07:12:19.686Z,14.25
2019-04-25T07:14:48.644Z,19.67
2019-04-25T07:17:35.957Z,12.90
2019-04-25T07:20:13.798Z,10.60
2019-04-25T07:22:49.837Z,9.98
2019-04-25T07:25:19.526Z,8.00
2019-04-25T07:28:06.713Z,8.03
2019-04-25T07:30:50.213Z,7.17
2019-04-25T07:33:13.853Z,6.72
2019-04-25T07:35:43.450Z,6.78
2019-04-25T07:38:14.072Z,5.87
2019-04-25T07:40:43.349Z,23.60
2019-04-25T07:43:13.454Z,6.35
2019-04-25T07:45:43.539Z,6.03
2019-04-25T07:48:13.958Z,6.30
2019-04-25T07:50:43.817Z,8.00
2019-04-25T07:53:14.280Z,6.25
2019-04-25T07:55:46.063Z,5.15
2019-04-25T07:58:15.719Z,4.85
2019-04-25T08:00:44.647Z,5.47
2019-04-25T08:03:15.388Z,5.22
2019-04-25T08:05:44.075Z,5.25
2019-04-25T08:08:13.590Z,4.80
2019-04-25T08:11:05.125Z,5.90
2019-04-25T08:13:37.787Z,6.05
2019-04-25T08:16:08.330Z,5.75
2019-04-25T08:18:47.834Z,4.95
2019-04-25T08:21:18.322Z,5.15
2019-04-25T08:23:53.759Z,5.72
2019-04-25T08:28:55.696Z,5.83
2019-04-25T08:31:23.444Z,5.42
2019-04-25T08:33:53.605Z,5.80
2019-04-25T08:36:23.369Z,5.35
2019-04-25T08:39:11.159Z,5.62
2019-04-25T09:15:31.160Z,17.85
2019-04-25T09:21:09.675Z,5.40
2019-04-25T09:23:39.544Z,5.35
2019-04-25T09:26:08.631Z,5.22
2019-04-25T09:28:39.527Z,5.05
2019-04-25T09:31:08.709Z,4.85
2019-04-25T09:33:37.537Z,6.17
2019-04-25T09:36:06.929Z,5.00
2019-04-25T09:38:37.037Z,7.72
2019-04-25T09:41:05.954Z,6.35
2019-04-25T09:43:35.839Z,5.10
2019-04-25T09:46:13.143Z,5.28
2019-04-25T09:48:45.507Z,6.65
2019-04-25T09:51:23.516Z,5.28
2019-04-25T09:53:56.786Z,4.92
2019-04-25T09:56:27.185Z,4.90
2019-04-25T09:59:07.470Z,5.40
2019-04-25T10:08:00.503Z,4.20
2019-04-25T10:10:29.898Z,4.47
2019-04-25T10:12:58.811Z,4.40
2019-04-25T10:15:48.381Z,4.67
2019-04-25T10:18:19.934Z,4.10
2019-04-25T10:20:51.536Z,4.42
2019-04-25T10:23:20.587Z,4.70
2019-04-25T10:25:49.935Z,4.42
2019-04-25T10:28:20.247Z,5.55
2019-04-25T10:30:49.225Z,4.30
2019-04-25T10:33:20.052Z,4.42
2019-04-25T10:35:53.170Z,4.53
2019-04-25T10:38:24.132Z,4.50
2019-04-25T10:40:53.592Z,6.08
2019-04-25T10:43:24.631Z,4.53
2019-04-25T10:45:55.089Z,4.85
2019-04-25T10:48:24.202Z,3.87
2019-04-25T10:50:53.884Z,4.28
2019-04-25T10:53:25.039Z,3.85
2019-04-25T10:55:53.682Z,4.33
2019-04-25T10:58:22.527Z,4.17
2019-04-25T11:00:53.357Z,5.75
2019-04-25T11:03:41.198Z,3.90
2019-04-25T11:06:10.698Z,4.25
2019-04-25T11:08:39.511Z,3.85
2019-04-25T11:11:11.782Z,4.30
2019-04-25T11:13:41.610Z,3.90
2019-04-25T11:16:13.773Z,4.00
2019-04-25T11:18:45.025Z,4.42
2019-04-25T11:21:14.667Z,4.35
2019-04-25T11:23:44.974Z,4.15
2019-04-25T11:26:13.924Z,4.65
2019-04-25T11:28:45.273Z,4.30
2019-04-25T11:31:15.920Z,3.60
2019-04-25T11:33:44.698Z,3.92
2019-04-25T11:36:16.764Z,5.83
2019-04-25T11:39:04.181Z,3.70
2019-04-25T11:41:34.159Z,4.17
2019-04-25T11:44:04.744Z,3.98
2019-04-25T11:46:33.549Z,3.62
2019-04-25T11:49:02.387Z,4.37
2019-04-25T11:51:31.137Z,4.00
2019-04-25T11:53:59.958Z,6.78
2019-04-25T11:56:30.420Z,3.90
2019-04-25T11:59:04.529Z,3.67
2019-04-25T12:01:35.009Z,4.10
2019-04-25T12:04:04.808Z,4.15
2019-04-25T12:06:33.640Z,4.45
2019-04-25T12:09:05.045Z,4.25
2019-04-25T12:11:34.372Z,4.20
2019-04-25T12:14:04.294Z,3.85
2019-04-25T12:16:37.487Z,8.23
2019-04-25T12:19:07.623Z,3.62
2019-04-25T12:21:36.736Z,4.40
2019-04-25T12:24:07.468Z,3.80
2019-04-25T12:26:37.680Z,3.95
2019-04-25T12:29:08.048Z,4.20
2019-04-25T12:31:36.806Z,4.42
2019-04-25T12:34:06.187Z,4.03
2019-04-25T12:36:36.404Z,4.10
2019-04-25T12:39:07.180Z,4.40
2019-04-25T12:41:36.515Z,4.55
2019-04-25T12:44:23.880Z,3.70
2019-04-25T12:46:55.440Z,3.58
2019-04-25T12:49:24.512Z,4.12
2019-04-25T12:51:53.264Z,3.58
2019-04-25T12:54:21.990Z,4.55
2019-04-25T12:56:52.193Z,4.12
2019-04-25T12:59:21.604Z,4.55
2019-04-25T13:02:28.107Z,4.78
2019-04-25T13:04:56.853Z,4.37
2019-04-25T13:07:26.416Z,4.22
2019-04-25T13:09:56.805Z,4.15
2019-04-25T13:12:25.718Z,4.03
2019-04-25T13:14:54.478Z,3.77
2019-04-25T13:18:10.198Z,4.15
2019-04-25T13:19:54.314Z,4.12
2019-04-25T13:22:23.268Z,4.83
2019-04-25T13:24:52.067Z,4.20
2019-04-25T13:27:23.477Z,4.70
2019-04-25T13:30:05.080Z,4.03
2019-04-25T13:32:52.172Z,4.17
2019-04-25T13:35:23.512Z,4.00
2019-04-25T13:37:53.896Z,4.67
2019-04-25T13:40:23.651Z,4.05
2019-04-25T13:42:54.218Z,5.40
2019-04-25T13:45:23.377Z,4.45
2019-04-25T13:47:52.168Z,4.15
2019-04-25T13:50:22.218Z,4.50
2019-04-25T13:52:53.266Z,5.12
2019-04-25T13:55:24.719Z,5.12
2019-04-25T13:57:55.149Z,4.50
2019-04-25T14:00:25.101Z,5.42
2019-04-25T14:10:06.753Z,4.80
2019-04-25T14:12:36.310Z,4.87
2019-04-25T14:15:19.317Z,5.22
2019-04-25T14:18:04.863Z,4.08
2019-04-25T14:20:37.482Z,4.83
2019-04-25T14:23:07.621Z,4.15
2019-04-25T14:25:36.785Z,4.58
2019-04-25T14:28:05.993Z,4.55
2019-04-25T14:30:36.000Z,4.83
2019-04-25T14:33:04.961Z,4.97
2019-04-25T14:35:33.728Z,4.00
2019-04-25T14:38:03.909Z,4.60
2019-04-25T14:40:34.012Z,4.30
2019-04-25T14:43:03.158Z,4.78
2019-04-25T14:45:43.969Z,4.95
2019-04-25T14:48:03.991Z,4.10
2019-04-25T14:50:32.737Z,4.70
2019-04-25T14:53:01.546Z,4.00
2019-04-25T14:55:37.989Z,6.45
2019-04-25T14:58:08.345Z,5.15
2019-04-25T15:00:50.724Z,5.10
2019-04-25T15:03:19.470Z,4.70
2019-04-25T15:05:48.245Z,4.17
2019-04-25T15:08:17.041Z,4.50
2019-04-25T15:10:48.343Z,4.97
2019-04-25T15:13:17.882Z,4.85
2019-04-25T15:15:46.743Z,4.85
2019-04-25T15:18:16.453Z,4.85
2019-04-25T15:20:45.316Z,5.28
2019-04-25T15:23:14.117Z,5.35
2019-04-25T15:25:43.114Z,5.62
2019-04-25T15:28:12.106Z,4.75
2019-04-25T15:30:41.120Z,5.90
2019-04-25T15:33:11.748Z,5.30
2019-04-25T15:35:46.298Z,5.60
2019-04-25T15:38:33.551Z,5.50
2019-04-25T15:41:07.967Z,5.53
2019-04-25T15:44:02.145Z,4.70
2019-04-25T15:46:32.589Z,5.50
2019-04-25T15:49:02.046Z,5.80
2019-04-25T15:51:30.865Z,5.72
2019-04-25T15:53:59.670Z,6.55
2019-04-25T15:56:28.646Z,5.22
2019-04-25T15:58:57.496Z,5.53
2019-04-25T16:01:26.481Z,5.53
2019-04-25T16:03:55.397Z,6.87
2019-04-25T16:06:26.610Z,5.67
2019-04-25T16:08:58.045Z,5.40
2019-04-25T16:11:28.260Z,5.80
2019-04-25T16:13:57.043Z,6.75
2019-04-25T16:16:26.793Z,5.67
2019-04-25T16:19:09.933Z,6.78
2019-04-25T16:21:26.758Z,15.53
2019-04-25T16:23:57.357Z,6.47
2019-04-25T16:26:26.985Z,6.53
2019-04-25T16:28:56.822Z,6.08
2019-04-25T16:31:26.654Z,6.00
2019-04-25T16:33:56.290Z,6.05
2019-04-25T16:36:25.126Z,6.50
2019-04-25T16:38:54.409Z,5.75
2019-04-25T16:41:24.167Z,6.22
2019-04-25T16:43:58.014Z,6.78
2019-04-25T16:46:28.703Z,6.03
2019-04-25T16:48:57.554Z,6.58
2019-04-25T16:51:26.253Z,6.78
2019-04-25T16:53:55.655Z,6.33
2019-04-25T16:56:32.472Z,7.03
2019-04-25T16:59:00.861Z,6.45
2019-04-25T17:01:30.374Z,6.10
2019-04-25T17:03:59.678Z,6.75
2019-04-25T17:06:30.089Z,6.70
2019-04-25T17:09:00.256Z,7.42
2019-04-25T17:11:29.502Z,7.50
2019-04-25T17:14:01.109Z,6.50
2019-04-25T17:16:37.448Z,7.60
2019-04-25T17:19:15.866Z,6.80
2019-04-25T17:25:25.542Z,6.58
2019-04-25T17:27:56.003Z,7.58
2019-04-25T17:30:27.521Z,6.15
2019-04-25T17:32:57.911Z,6.72
2019-04-25T17:35:40.857Z,6.30
2019-04-25T17:38:15.535Z,6.80
2019-04-25T17:40:44.758Z,6.17
2019-04-25T17:43:13.618Z,6.85
2019-04-25T17:45:42.344Z,6.22
2019-04-25T17:48:11.905Z,7.25
2019-04-25T17:50:43.845Z,6.47
2019-04-25T17:53:23.838Z,6.87
2019-04-25T17:55:52.681Z,6.72
2019-04-25T17:58:22.078Z,7.35
2019-04-25T18:00:51.122Z,7.95
2019-04-25T18:03:20.076Z,6.97
2019-04-25T18:05:48.853Z,7.83
2019-04-25T18:08:26.138Z,6.83
2019-04-25T18:10:55.453Z,7.10
2019-04-25T18:13:25.565Z,7.35
2019-04-25T18:16:14.455Z,7.80
2019-04-25T18:18:45.599Z,8.10
2019-04-25T18:21:24.465Z,7.45
2019-04-25T18:24:11.567Z,8.25
2019-04-25T18:26:43.421Z,7.35
2019-04-25T18:29:19.589Z,7.40
2019-04-25T18:31:50.129Z,6.90
2019-04-25T18:34:22.594Z,6.33
2019-04-25T18:36:53.289Z,7.30
2019-04-25T18:39:32.646Z,7.15
2019-04-25T18:42:12.087Z,6.95
2019-04-25T18:44:42.166Z,7.85
2019-04-25T18:47:18.129Z,7.90
2019-04-25T18:50:42.589Z,7.30
2019-04-25T18:53:15.823Z,7.95
2019-04-25T18:56:01.184Z,9.30
2019-04-25T18:58:34.550Z,9.30
2019-04-25T19:01:07.641Z,9.23
2019-04-25T19:03:44.005Z,9.70
2019-04-25T19:06:57.764Z,7.97
2019-04-25T19:09:23.313Z,8.00
2019-04-25T19:11:52.297Z,8.55
2019-04-25T19:14:21.669Z,7.37
2019-04-25T19:16:51.921Z,7.28
2019-04-25T19:19:21.672Z,7.70
2019-04-25T19:21:59.235Z,7.12
2019-04-25T19:24:28.165Z,7.22
2019-04-25T19:26:56.973Z,8.10
2019-04-25T19:29:25.956Z,7.55
2019-04-25T19:31:56.113Z,7.53
2019-04-25T19:34:25.984Z,6.95
2019-04-25T19:36:54.826Z,8.15
2019-04-25T19:39:26.574Z,7.33
2019-04-25T19:45:23.231Z,7.92
2019-04-25T19:48:34.739Z,8.95
2019-04-25T19:51:03.252Z,9.18
2019-04-25T19:53:36.714Z,9.25
2019-04-25T19:56:05.484Z,9.00
2019-04-25T19:58:34.195Z,9.15
2019-04-25T20:01:03.347Z,8.70
2019-04-25T20:03:33.678Z,9.90
2019-04-25T20:06:10.434Z,9.65
2019-04-25T20:08:44.828Z,7.95
2019-04-25T20:11:21.563Z,10.08
2019-04-25T20:13:51.224Z,8.80
2019-04-25T20:16:21.103Z,8.78
2019-04-25T20:18:49.932Z,9.30
2019-04-25T20:21:18.845Z,7.95
2019-04-25T20:23:47.921Z,8.35
2019-04-25T20:26:18.004Z,8.93
2019-04-25T20:28:46.796Z,8.30
2019-04-25T20:31:15.628Z,7.80
2019-04-25T20:33:45.460Z,9.60
2019-04-25T20:36:17.849Z,7.58
2019-04-25T20:38:45.828Z,8.78
2019-04-25T20:41:15.057Z,7.40
2019-04-25T20:43:43.919Z,6.85
2019-04-25T20:46:14.785Z,8.63
2019-04-25T20:48:43.924Z,8.70
2019-04-25T20:51:13.876Z,9.10
2019-04-25T20:53:42.702Z,8.68
2019-04-25T20:56:12.365Z,7.55
2019-04-25T20:58:41.164Z,8.58
2019-04-25T21:01:10.146Z,9.03
2019-04-25T21:03:38.903Z,7.67
2019-04-25T21:06:09.666Z,8.63
2019-04-25T21:08:38.406Z,7.97
2019-04-25T21:11:07.566Z,8.80
2019-04-25T21:13:43.664Z,8.30
2019-04-25T21:16:30.486Z,8.10
2019-04-25T21:19:02.009Z,7.80
2019-04-25T21:21:30.913Z,8.25
2019-04-25T21:24:01.147Z,8.05
2019-04-25T21:26:30.001Z,7.92
2019-04-25T21:28:58.745Z,8.50
2019-04-25T21:31:27.563Z,7.25
2019-04-25T21:33:57.541Z,8.28
2019-04-25T21:36:26.589Z,8.25
2019-04-25T21:38:55.876Z,8.23
2019-04-25T21:41:41.656Z,8.30
2019-04-25T21:44:11.010Z,8.20
2019-04-25T21:46:39.748Z,8.75
2019-04-25T21:49:08.804Z,8.33
2019-04-25T21:51:37.515Z,8.40
2019-04-25T21:54:07.418Z,8.55
2019-04-25T21:59:23.207Z,8.05
2019-04-25T22:01:53.729Z,9.30
2019-04-25T22:04:23.218Z,9.10
2019-04-25T22:06:54.259Z,9.20
2019-04-25T22:09:24.186Z,9.05
2019-04-25T22:11:54.744Z,8.50
2019-04-25T22:14:24.079Z,8.90
2019-04-25T22:16:53.391Z,8.98
2019-04-25T22:19:22.352Z,8.20
2019-04-25T22:24:37.671Z,9.23
2019-04-25T22:27:08.171Z,8.43
2019-04-25T22:29:38.535Z,9.35
2019-04-25T22:32:12.291Z,9.53
2019-04-25T22:34:52.276Z,8.33
2019-04-25T22:37:14.616Z,9.45
2019-04-25T22:39:43.606Z,9.30
2019-04-25T22:42:15.414Z,9.30
2019-04-25T22:44:44.003Z,9.48
2019-04-25T22:47:12.790Z,8.60
2019-04-25T22:49:43.178Z,9.80
2019-04-25T22:52:12.225Z,8.78
2019-04-25T22:54:42.292Z,8.88
2019-04-25T22:57:12.708Z,8.20
2019-04-25T22:59:42.060Z,8.23
2019-04-25T23:02:15.083Z,7.87
2019-04-25T23:05:04.313Z,9.13
2019-04-25T23:07:22.368Z,8.55
2019-04-25T23:09:51.950Z,8.48
2019-04-25T23:12:21.930Z,8.03
2019-04-25T23:14:50.629Z,8.35
2019-04-25T23:17:21.047Z,8.90
2019-04-25T23:19:49.987Z,8.40
2019-04-25T23:22:18.796Z,8.18
2019-04-25T23:24:49.461Z,9.20
2019-04-25T23:27:36.189Z,7.45
2019-04-25T23:30:10.085Z,8.40
2019-04-25T23:32:38.364Z,7.53
2019-04-25T23:35:22.145Z,7.87
2019-04-25T23:37:39.239Z,8.33
2019-04-25T23:40:09.736Z,8.65
2019-04-25T23:42:38.485Z,8.10
2019-04-25T23:45:08.684Z,8.75
2019-04-25T23:47:37.425Z,8.33
2019-04-25T23:50:08.610Z,8.28
2019-04-25T23:52:37.855Z,8.05
2019-04-25T23:55:08.098Z,8.08
2019-04-25T23:57:37.076Z,8.83
